createdAt,value
2019-01-29T00:01:54.568Z,98831.55
2019-01-29T00:04:21.489Z,98834.09
2019-01-29T00:06:48.449Z,98827.81
2019-01-29T00:09:15.342Z,98836.97
2019-01-29T00:11:42.243Z,98839.28
2019-01-29T00:14:08.917Z,98841.25
2019-01-29T00:16:36.814Z,98845.09
2019-01-29T00:19:03.968Z,98843.01
2019-01-29T00:21:30.593Z,98842.14
2019-01-29T00:23:57.472Z,98837.94
2019-01-29T00:26:24.426Z,98837.10
2019-01-29T00:28:51.324Z,98840.44
2019-01-29T00:31:18.005Z,98848.67
2019-01-29T00:33:44.894Z,98847.33
2019-01-29T00:36:12.588Z,98850.94
2019-01-29T00:38:50.312Z,98841.18
2019-01-29T00:41:19.476Z,98853.18
2019-01-29T00:43:46.050Z,98856.18
2019-01-29T00:46:12.708Z,98852.20
2019-01-29T00:48:39.400Z,98848.84
2019-01-29T00:51:08.586Z,98855.38
2019-01-29T00:53:35.159Z,98854.13
2019-01-29T00:56:01.817Z,98856.95
2019-01-29T00:58:28.611Z,98861.10
2019-01-29T01:00:55.256Z,98862.45
2019-01-29T01:03:21.819Z,98857.33
2019-01-29T01:05:48.409Z,98866.02
2019-01-29T01:08:14.956Z,98853.55
2019-01-29T01:10:41.494Z,98856.92
2019-01-29T01:13:08.164Z,98858.60
2019-01-29T01:15:34.836Z,98865.44
2019-01-29T01:18:01.404Z,98860.53
2019-01-29T01:20:27.960Z,98867.84
2019-01-29T01:22:54.532Z,98869.79
2019-01-29T01:25:21.152Z,98865.81
2019-01-29T01:27:48.861Z,98868.41
2019-01-29T01:30:17.634Z,98857.53
2019-01-29T01:32:44.436Z,98865.11
2019-01-29T01:35:10.979Z,98861.08
2019-01-29T01:37:37.603Z,98856.28
2019-01-29T01:40:09.989Z,98865.06
2019-01-29T01:42:36.561Z,98868.33
2019-01-29T01:45:08.170Z,98867.83
2019-01-29T01:47:34.769Z,98873.28
2019-01-29T01:50:01.433Z,98865.98
2019-01-29T01:52:28.169Z,98863.10
2019-01-29T01:54:54.732Z,98860.27
2019-01-29T01:57:21.308Z,98870.30
2019-01-29T01:59:47.871Z,98861.55
2019-01-29T02:02:14.468Z,98858.30
2019-01-29T02:04:41.149Z,98863.00
2019-01-29T02:07:07.762Z,98866.27
2019-01-29T02:09:34.584Z,98869.18
2019-01-29T02:12:01.163Z,98876.23
2019-01-29T02:14:27.725Z,98869.47
2019-01-29T02:16:54.450Z,98869.42
2019-01-29T02:19:21.000Z,98875.73
2019-01-29T02:21:47.644Z,98882.50
2019-01-29T02:24:14.313Z,98878.11
2019-01-29T02:26:40.934Z,98889.54
2019-01-29T02:29:07.612Z,98892.67
2019-01-29T02:31:34.576Z,98895.49
2019-01-29T02:34:01.151Z,98894.16
2019-01-29T02:36:27.803Z,98886.90
2019-01-29T02:38:54.396Z,98901.88
2019-01-29T02:41:21.010Z,98909.09
2019-01-29T02:43:47.588Z,98910.48
2019-01-29T02:46:14.549Z,98910.14
2019-01-29T02:48:41.233Z,98908.88
2019-01-29T02:51:07.843Z,98914.81
2019-01-29T02:53:34.997Z,98919.11
2019-01-29T02:56:02.039Z,98923.45
2019-01-29T02:58:28.712Z,98930.25
2019-01-29T03:00:55.300Z,98929.34
2019-01-29T03:03:21.895Z,98928.19
2019-01-29T03:05:48.455Z,98929.31
2019-01-29T03:08:15.408Z,98928.41
2019-01-29T03:10:42.326Z,98927.32
2019-01-29T03:13:08.991Z,98937.09
2019-01-29T03:15:36.708Z,98933.53
2019-01-29T03:18:03.245Z,98948.02
2019-01-29T03:20:30.228Z,98944.27
2019-01-29T03:22:57.219Z,98943.31
2019-01-29T03:25:24.210Z,98941.39
2019-01-29T03:27:51.341Z,98947.69
2019-01-29T03:30:20.608Z,98944.47
2019-01-29T03:32:47.427Z,98953.77
2019-01-29T03:35:14.450Z,98953.91
2019-01-29T03:37:41.064Z,98953.03
2019-01-29T03:40:12.453Z,98956.83
2019-01-29T03:42:40.900Z,98960.33
2019-01-29T03:45:12.747Z,98955.49
2019-01-29T03:47:39.452Z,98948.22
2019-01-29T03:50:10.154Z,98952.56
2019-01-29T03:52:36.836Z,98956.36
2019-01-29T03:55:05.995Z,98962.17
2019-01-29T03:57:32.614Z,98974.23
2019-01-29T03:59:59.502Z,98967.48
2019-01-29T04:02:26.130Z,98967.05
2019-01-29T04:04:52.678Z,98977.09
2019-01-29T04:07:19.353Z,98977.41
2019-01-29T04:09:46.087Z,98981.89
2019-01-29T04:12:12.758Z,98974.59
2019-01-29T04:14:39.320Z,98974.63
2019-01-29T04:17:06.030Z,98972.83
2019-01-29T04:19:32.738Z,98970.88
2019-01-29T04:21:59.318Z,98969.11
2019-01-29T04:24:25.967Z,98980.43
2019-01-29T04:26:52.574Z,98973.00
2019-01-29T04:29:19.175Z,98972.20
2019-01-29T04:31:46.127Z,98975.67
2019-01-29T04:34:12.703Z,98979.17
2019-01-29T04:36:39.370Z,98984.36
2019-01-29T04:39:06.571Z,98985.53
2019-01-29T04:41:33.257Z,98992.84
2019-01-29T04:43:59.872Z,98993.05
2019-01-29T04:46:26.513Z,98994.38
2019-01-29T04:48:53.068Z,98997.89
2019-01-29T04:51:19.720Z,98999.48
2019-01-29T04:53:46.403Z,99002.48
2019-01-29T04:56:13.017Z,99006.00
2019-01-29T04:58:39.574Z,99002.53
2019-01-29T05:01:06.253Z,99005.53
2019-01-29T05:03:32.912Z,99011.63
2019-01-29T05:05:59.613Z,99012.05
2019-01-29T05:08:26.248Z,99020.20
2019-01-29T05:10:52.848Z,99009.97
2019-01-29T05:13:19.414Z,99018.61
2019-01-29T05:15:45.973Z,99013.85
2019-01-29T05:18:12.609Z,99013.56
2019-01-29T05:20:39.185Z,99015.59
2019-01-29T05:23:05.817Z,99018.14
2019-01-29T05:25:32.500Z,99020.66
2019-01-29T05:27:59.522Z,99024.92
2019-01-29T05:30:26.227Z,99025.41
2019-01-29T05:32:52.851Z,99028.08
2019-01-29T05:35:19.521Z,99029.80
2019-01-29T05:37:46.272Z,99025.48
2019-01-29T05:40:16.445Z,99025.83
2019-01-29T05:42:43.184Z,99026.78
2019-01-29T05:45:14.552Z,99030.72
2019-01-29T05:47:41.125Z,99021.56
2019-01-29T05:50:11.950Z,99021.03
2019-01-29T05:52:38.515Z,99026.63
2019-01-29T05:55:07.936Z,99025.87
2019-01-29T05:57:34.688Z,99031.88
2019-01-29T06:00:01.359Z,99035.97
2019-01-29T06:02:27.997Z,99037.14
2019-01-29T06:04:54.639Z,99036.77
2019-01-29T06:07:21.331Z,99043.28
2019-01-29T06:09:48.033Z,99049.67
2019-01-29T06:12:14.598Z,99048.37
2019-01-29T06:14:41.302Z,99052.59
2019-01-29T06:17:07.862Z,99065.58
2019-01-29T06:19:34.557Z,99064.97
2019-01-29T06:22:01.167Z,99068.55
2019-01-29T06:24:27.850Z,99075.14
2019-01-29T06:26:54.431Z,99082.64
2019-01-29T06:29:21.074Z,99075.02
2019-01-29T06:31:47.657Z,99075.83
2019-01-29T06:34:14.333Z,99076.16
2019-01-29T06:36:40.905Z,99084.89
2019-01-29T06:39:07.584Z,99081.72
2019-01-29T06:41:34.529Z,99080.77
2019-01-29T06:44:01.083Z,99094.17
2019-01-29T06:46:27.621Z,99094.30
2019-01-29T06:48:54.198Z,99101.56
2019-01-29T06:51:21.103Z,99097.98
2019-01-29T06:53:47.762Z,99110.25
2019-01-29T06:56:14.378Z,99116.64
2019-01-29T06:58:41.071Z,99114.78
2019-01-29T07:01:07.611Z,99116.45
2019-01-29T07:03:34.373Z,99125.83
2019-01-29T07:06:00.952Z,99123.58
2019-01-29T07:08:27.963Z,99123.88
2019-01-29T07:10:54.563Z,99127.39
2019-01-29T07:13:21.363Z,99125.80
2019-01-29T07:15:49.859Z,99123.50
2019-01-29T07:18:18.431Z,99134.24
2019-01-29T07:20:44.991Z,99134.63
2019-01-29T07:23:12.172Z,99138.70
2019-01-29T07:25:38.802Z,99142.55
2019-01-29T07:28:05.409Z,99148.30
2019-01-29T07:30:32.060Z,99154.23
2019-01-29T07:32:58.664Z,99151.19
2019-01-29T07:35:25.243Z,99156.14
2019-01-29T07:37:51.834Z,99160.45
2019-01-29T07:40:18.436Z,99162.23
2019-01-29T07:42:45.067Z,99166.42
2019-01-29T07:45:12.860Z,99162.42
2019-01-29T07:47:39.455Z,99160.17
2019-01-29T07:50:09.068Z,99168.79
2019-01-29T07:52:35.779Z,99167.95
2019-01-29T07:55:06.200Z,99182.19
2019-01-29T07:57:32.887Z,99178.64
2019-01-29T07:59:59.545Z,99176.84
2019-01-29T08:02:26.151Z,99185.91
2019-01-29T08:04:53.546Z,99185.84
2019-01-29T08:07:20.217Z,99191.02
2019-01-29T08:09:46.797Z,99195.50
2019-01-29T08:12:13.415Z,99197.75
2019-01-29T08:14:40.096Z,99193.13
2019-01-29T08:17:06.854Z,99191.36
2019-01-29T08:19:33.763Z,99202.39
2019-01-29T08:22:00.419Z,99207.25
2019-01-29T08:24:27.818Z,99208.47
2019-01-29T08:26:54.545Z,99207.59
2019-01-29T08:29:21.118Z,99220.52
2019-01-29T08:31:47.766Z,99216.91
2019-01-29T08:34:14.373Z,99220.62
2019-01-29T08:36:41.033Z,99220.92
2019-01-29T08:39:11.107Z,99222.16
2019-01-29T08:41:37.956Z,99225.09
2019-01-29T08:44:05.053Z,99232.88
2019-01-29T08:46:31.623Z,99233.47
2019-01-29T08:48:58.248Z,99235.84
2019-01-29T08:51:24.844Z,99242.27
2019-01-29T08:53:52.707Z,99248.88
2019-01-29T08:56:19.320Z,99246.87
2019-01-29T08:58:45.903Z,99247.57
2019-01-29T09:01:16.020Z,99248.75
2019-01-29T09:03:46.356Z,99252.19
2019-01-29T09:06:13.149Z,99256.66
2019-01-29T09:08:39.751Z,99265.28
2019-01-29T09:11:06.384Z,99260.84
2019-01-29T09:13:32.956Z,99262.98
2019-01-29T09:15:59.547Z,99270.34
2019-01-29T09:18:26.126Z,99265.73
2019-01-29T09:20:52.771Z,99262.81
2019-01-29T09:23:19.343Z,99270.55
2019-01-29T09:25:45.978Z,99265.28
2019-01-29T09:28:18.376Z,99278.46
2019-01-29T09:30:41.073Z,99279.67
2019-01-29T09:33:07.652Z,99276.95
2019-01-29T09:35:34.338Z,99274.22
2019-01-29T09:38:00.910Z,99274.14
2019-01-29T09:40:27.491Z,99272.07
2019-01-29T09:42:54.064Z,99277.50
2019-01-29T09:45:20.733Z,99271.34
2019-01-29T09:47:48.588Z,99275.97
2019-01-29T09:50:21.002Z,99275.19
2019-01-29T09:52:47.661Z,99270.00
2019-01-29T09:55:17.471Z,99276.36
2019-01-29T09:57:44.219Z,99277.37
2019-01-29T10:00:16.399Z,99277.78
2019-01-29T10:02:42.988Z,99278.17
2019-01-29T10:05:09.684Z,99271.20
2019-01-29T10:07:37.357Z,99277.27
2019-01-29T10:10:09.360Z,99275.34
2019-01-29T10:12:35.965Z,99273.38
2019-01-29T10:15:09.460Z,99282.91
2019-01-29T10:17:36.067Z,99277.05
2019-01-29T10:20:05.468Z,99282.25
2019-01-29T10:22:32.393Z,99274.84
2019-01-29T10:24:58.978Z,99282.05
2019-01-29T10:27:25.661Z,99281.58
2019-01-29T10:29:52.227Z,99275.42
2019-01-29T10:32:18.815Z,99277.97
2019-01-29T10:34:45.390Z,99272.33
2019-01-29T10:37:12.195Z,99281.58
2019-01-29T10:39:38.790Z,99270.34
2019-01-29T10:42:06.024Z,99274.19
2019-01-29T10:44:32.945Z,99270.34
2019-01-29T10:46:59.523Z,99271.69
2019-01-29T10:49:26.096Z,99268.41
2019-01-29T10:51:52.672Z,99263.97
2019-01-29T10:54:19.225Z,99261.80
2019-01-29T10:56:45.796Z,99270.02
2019-01-29T10:59:12.493Z,99269.55
2019-01-29T11:01:39.066Z,99270.17
2019-01-29T11:04:06.055Z,99267.80
2019-01-29T11:07:29.567Z,99265.70
2019-01-29T11:09:56.215Z,99272.82
2019-01-29T11:12:23.154Z,99277.56
2019-01-29T11:14:49.803Z,99280.95
2019-01-29T11:17:16.447Z,99284.29
2019-01-29T11:19:43.194Z,99292.30
2019-01-29T11:22:10.019Z,99289.98
2019-01-29T11:24:36.570Z,99290.42
2019-01-29T11:27:03.258Z,99299.52
2019-01-29T11:29:29.829Z,99296.12
2019-01-29T11:31:56.361Z,99295.52
2019-01-29T11:34:22.962Z,99296.51
2019-01-29T11:36:49.510Z,99300.55
2019-01-29T11:39:16.095Z,99299.05
2019-01-29T11:41:42.718Z,99304.50
2019-01-29T11:44:09.294Z,99300.92
2019-01-29T11:46:35.915Z,99302.46
2019-01-29T11:49:02.764Z,99304.96
2019-01-29T11:51:29.897Z,99310.48
2019-01-29T11:53:56.474Z,99311.24
2019-01-29T11:56:23.058Z,99316.25
2019-01-29T11:58:49.703Z,99320.52
2019-01-29T12:01:16.370Z,99323.42
2019-01-29T12:03:42.924Z,99325.03
2019-01-29T12:06:09.511Z,99329.01
2019-01-29T12:08:36.154Z,99331.59
2019-01-29T12:11:02.704Z,99340.23
2019-01-29T12:13:29.489Z,99338.84
2019-01-29T12:15:56.146Z,99343.05
2019-01-29T12:18:22.741Z,99343.63
2019-01-29T12:20:49.310Z,99342.48
2019-01-29T12:23:16.786Z,99338.27
2019-01-29T12:25:43.387Z,99343.03
2019-01-29T12:28:09.934Z,99344.85
2019-01-29T12:30:36.695Z,99353.75
2019-01-29T12:33:06.682Z,99353.37
2019-01-29T12:35:33.419Z,99366.84
2019-01-29T12:38:00.039Z,99362.73
2019-01-29T12:40:26.650Z,99367.00
2019-01-29T12:42:53.209Z,99369.19
2019-01-29T12:45:21.032Z,99370.95
2019-01-29T12:47:47.730Z,99368.77
2019-01-29T12:50:20.061Z,99370.95
2019-01-29T12:52:48.985Z,99371.84
2019-01-29T12:55:15.572Z,99378.73
2019-01-29T12:57:42.181Z,99373.85
2019-01-29T13:00:14.630Z,99378.36
2019-01-29T13:02:41.307Z,99377.61
2019-01-29T13:05:11.411Z,99379.38
2019-01-29T13:07:37.988Z,99378.89
2019-01-29T13:10:10.377Z,99376.84
2019-01-29T13:12:36.987Z,99382.23
2019-01-29T13:15:09.457Z,99381.67
2019-01-29T13:17:36.310Z,99382.51
2019-01-29T13:20:08.267Z,99392.45
2019-01-29T13:22:34.976Z,99391.41
2019-01-29T13:25:01.533Z,99393.49
2019-01-29T13:27:29.452Z,99401.25
2019-01-29T13:29:56.009Z,99394.70
2019-01-29T13:32:23.014Z,99400.84
2019-01-29T13:34:49.843Z,99398.80
2019-01-29T13:37:16.399Z,99400.63
2019-01-29T13:39:43.174Z,99410.28
2019-01-29T13:42:09.760Z,99401.88
2019-01-29T13:44:40.497Z,99406.76
2019-01-29T13:47:10.872Z,99411.78
2019-01-29T13:50:37.751Z,99410.85
2019-01-29T13:53:05.384Z,99415.78
2019-01-29T13:55:32.193Z,99409.97
2019-01-29T13:57:58.801Z,99406.31
2019-01-29T14:00:30.607Z,99407.56
2019-01-29T14:02:57.618Z,99416.67
2019-01-29T14:05:24.184Z,99416.24
2019-01-29T14:07:50.908Z,99418.38
2019-01-29T14:10:17.577Z,99417.45
2019-01-29T14:12:44.262Z,99425.20
2019-01-29T14:15:18.051Z,99434.27
2019-01-29T14:17:47.170Z,99431.94
2019-01-29T14:20:17.046Z,99438.64
2019-01-29T14:22:44.642Z,99440.55
2019-01-29T14:25:11.191Z,99446.30
2019-01-29T14:27:37.800Z,99449.45
2019-01-29T14:30:10.261Z,99452.89
2019-01-29T14:32:36.864Z,99449.59
2019-01-29T14:36:00.146Z,99454.84
2019-01-29T14:38:26.840Z,99458.17
2019-01-29T14:40:53.493Z,99465.05
2019-01-29T14:43:26.311Z,99465.09
2019-01-29T14:45:53.151Z,99468.05
2019-01-29T14:48:19.715Z,99475.84
2019-01-29T14:50:46.305Z,99480.63
2019-01-29T14:53:12.960Z,99483.64
2019-01-29T14:55:39.575Z,99482.97
2019-01-29T14:58:06.172Z,99496.64
2019-01-29T15:00:37.520Z,99493.13
2019-01-29T15:03:04.081Z,99496.38
2019-01-29T15:05:30.906Z,99502.41
2019-01-29T15:07:57.636Z,99503.89
2019-01-29T15:10:27.653Z,99509.97
2019-01-29T15:12:56.498Z,99508.42
2019-01-29T15:15:27.979Z,99508.84
2019-01-29T15:17:56.579Z,99517.23
2019-01-29T15:20:23.207Z,99514.97
2019-01-29T15:22:50.194Z,99517.52
2019-01-29T15:25:17.880Z,99519.45
2019-01-29T15:27:44.698Z,99517.36
2019-01-29T15:30:15.093Z,99514.67
2019-01-29T15:32:42.078Z,99527.70
2019-01-29T15:35:08.686Z,99529.05
2019-01-29T15:37:35.303Z,99536.39
2019-01-29T15:40:05.056Z,99535.63
2019-01-29T15:42:31.985Z,99533.58
2019-01-29T15:44:59.091Z,99540.48
2019-01-29T15:47:26.201Z,99542.41
2019-01-29T15:49:52.890Z,99544.97
2019-01-29T15:52:20.206Z,99556.62
2019-01-29T15:54:46.866Z,99553.25
2019-01-29T15:57:14.472Z,99555.39
2019-01-29T15:59:43.056Z,99558.57
2019-01-29T16:02:09.711Z,99567.13
2019-01-29T16:04:36.324Z,99567.25
2019-01-29T16:07:02.930Z,99572.70
2019-01-29T16:09:29.580Z,99570.86
2019-01-29T16:11:56.648Z,99584.08
2019-01-29T16:14:23.693Z,99591.00
2019-01-29T16:16:50.620Z,99586.07
2019-01-29T16:19:17.307Z,99597.80
2019-01-29T16:21:44.629Z,99600.41
2019-01-29T16:24:11.319Z,99600.66
2019-01-29T16:26:38.122Z,99598.69
2019-01-29T16:29:04.686Z,99607.66
2019-01-29T16:31:31.450Z,99598.60
2019-01-29T16:33:58.372Z,99608.92
2019-01-29T16:36:25.149Z,99614.77
2019-01-29T16:38:51.707Z,99610.11
2019-01-29T16:41:18.333Z,99613.23
2019-01-29T16:43:45.259Z,99615.34
2019-01-29T16:46:12.318Z,99620.08
2019-01-29T16:48:38.987Z,99625.53
2019-01-29T16:51:05.817Z,99625.56
2019-01-29T16:53:32.938Z,99631.45
2019-01-29T16:55:59.848Z,99635.68
2019-01-29T16:58:26.855Z,99649.61
2019-01-29T17:00:53.428Z,99647.51
2019-01-29T17:03:20.529Z,99647.58
2019-01-29T17:05:47.519Z,99651.61
2019-01-29T17:08:15.020Z,99646.75
2019-01-29T17:10:41.866Z,99655.25
2019-01-29T17:13:08.771Z,99658.37
2019-01-29T17:15:37.535Z,99665.36
2019-01-29T17:18:06.789Z,99666.34
2019-01-29T17:20:39.432Z,99666.16
2019-01-29T17:23:06.980Z,99668.39
2019-01-29T17:25:33.585Z,99665.83
2019-01-29T17:28:00.192Z,99672.73
2019-01-29T17:30:32.131Z,99673.09
2019-01-29T17:32:59.015Z,99673.68
2019-01-29T17:35:25.571Z,99679.81
2019-01-29T17:37:52.397Z,99682.27
2019-01-29T17:40:21.221Z,99681.98
2019-01-29T17:42:47.839Z,99683.25
2019-01-29T17:45:20.298Z,99687.66
2019-01-29T17:47:46.868Z,99685.36
2019-01-29T17:50:18.578Z,99696.73
2019-01-29T17:52:45.333Z,99697.91
2019-01-29T17:55:14.229Z,99694.23
2019-01-29T17:57:50.342Z,99690.25
2019-01-29T18:00:15.127Z,99699.00
2019-01-29T18:02:41.752Z,99703.67
2019-01-29T18:05:08.368Z,99700.78
2019-01-29T18:07:34.989Z,99700.36
2019-01-29T18:10:01.549Z,99700.53
2019-01-29T18:12:28.259Z,99702.20
2019-01-29T18:14:54.880Z,99707.44
2019-01-29T18:17:21.545Z,99704.80
2019-01-29T18:19:48.250Z,99701.80
2019-01-29T18:22:15.061Z,99706.94
2019-01-29T18:24:41.844Z,99707.92
2019-01-29T18:27:08.756Z,99711.81
2019-01-29T18:29:35.458Z,99706.63
2019-01-29T18:32:02.013Z,99710.49
2019-01-29T18:34:28.740Z,99715.25
2019-01-29T18:36:55.414Z,99713.45
2019-01-29T18:39:22.133Z,99721.29
2019-01-29T18:41:48.717Z,99723.94
2019-01-29T18:44:19.329Z,99722.67
2019-01-29T18:46:46.712Z,99728.63
2019-01-29T18:49:13.595Z,99732.41
2019-01-29T18:51:40.682Z,99733.87
2019-01-29T18:54:07.253Z,99733.70
2019-01-29T18:56:33.817Z,99740.72
2019-01-29T18:59:00.524Z,99733.56
2019-01-29T19:01:27.147Z,99738.58
2019-01-29T19:03:53.742Z,99737.88
2019-01-29T19:06:20.474Z,99734.48
2019-01-29T19:08:47.215Z,99738.34
2019-01-29T19:11:13.878Z,99739.22
2019-01-29T19:13:40.524Z,99736.63
2019-01-29T19:16:07.140Z,99735.36
2019-01-29T19:18:34.116Z,99741.77
2019-01-29T19:21:01.264Z,99736.73
2019-01-29T19:23:28.699Z,99733.69
2019-01-29T19:25:55.718Z,99743.64
2019-01-29T19:28:22.998Z,99750.55
2019-01-29T19:30:49.742Z,99740.52
2019-01-29T19:33:16.583Z,99747.03
2019-01-29T19:35:43.501Z,99748.49
2019-01-29T19:38:10.376Z,99742.01
2019-01-29T19:40:40.414Z,99750.27
2019-01-29T19:43:07.424Z,99755.08
2019-01-29T19:45:34.483Z,99758.38
2019-01-29T19:48:03.910Z,99762.23
2019-01-29T19:50:31.696Z,99760.50
2019-01-29T19:52:59.371Z,99756.38
2019-01-29T19:55:26.471Z,99758.02
2019-01-29T19:57:53.305Z,99756.35
2019-01-29T20:00:25.140Z,99749.13
2019-01-29T20:02:52.209Z,99766.70
2019-01-29T20:05:19.028Z,99759.29
2019-01-29T20:07:45.626Z,99761.91
2019-01-29T20:10:15.749Z,99766.27
2019-01-29T20:12:43.375Z,99777.07
2019-01-29T20:15:15.436Z,99772.86
2019-01-29T20:17:42.343Z,99768.84
2019-01-29T20:20:18.038Z,99769.14
2019-01-29T20:22:44.741Z,99775.02
2019-01-29T20:25:17.370Z,99779.92
2019-01-29T20:27:44.232Z,99776.44
2019-01-29T20:30:18.285Z,99782.84
2019-01-29T20:32:53.255Z,99781.17
2019-01-29T20:35:15.154Z,99787.12
2019-01-29T20:37:41.748Z,99785.41
2019-01-29T20:40:14.398Z,99791.88
2019-01-29T20:42:42.627Z,99788.84
2019-01-29T20:45:11.589Z,99784.50
2019-01-29T20:47:39.106Z,99783.14
2019-01-29T20:50:11.674Z,99781.42
2019-01-29T20:52:39.395Z,99790.47
2019-01-29T20:55:07.183Z,99791.33
2019-01-29T20:57:33.905Z,99792.16
2019-01-29T21:00:01.065Z,99793.11
2019-01-29T21:02:27.621Z,99787.42
2019-01-29T21:04:55.053Z,99788.33
2019-01-29T21:07:21.609Z,99787.85
2019-01-29T21:09:48.247Z,99790.94
2019-01-29T21:12:14.955Z,99787.52
2019-01-29T21:14:41.664Z,99791.83
2019-01-29T21:17:08.318Z,99790.92
2019-01-29T21:19:35.088Z,99787.85
2019-01-29T21:22:01.699Z,99787.47
2019-01-29T21:24:28.434Z,99789.66
2019-01-29T21:26:55.014Z,99787.50
2019-01-29T21:29:21.675Z,99788.45
2019-01-29T21:31:48.649Z,99789.70
2019-01-29T21:34:15.413Z,99789.64
2019-01-29T21:36:41.998Z,99788.84
2019-01-29T21:39:08.674Z,99777.16
2019-01-29T21:41:35.288Z,99777.58
2019-01-29T21:44:02.928Z,99779.36
2019-01-29T21:46:29.814Z,99785.41
2019-01-29T21:48:56.526Z,99784.55
2019-01-29T21:51:23.171Z,99783.18
2019-01-29T21:53:49.843Z,99790.53
2019-01-29T21:56:16.510Z,99786.67
2019-01-29T21:58:43.061Z,99797.91
2019-01-29T22:01:09.826Z,99797.06
2019-01-29T22:03:36.520Z,99798.22
2019-01-29T22:06:03.583Z,99798.95
2019-01-29T22:08:30.435Z,99799.82
2019-01-29T22:10:57.040Z,99800.72
2019-01-29T22:13:23.678Z,99803.37
2019-01-29T22:15:50.328Z,99803.78
2019-01-29T22:18:16.951Z,99798.11
2019-01-29T22:20:43.575Z,99792.94
2019-01-29T22:23:10.153Z,99805.88
2019-01-29T22:25:36.756Z,99801.12
2019-01-29T22:28:04.697Z,99805.84
2019-01-29T22:30:35.968Z,99810.52
2019-01-29T22:33:03.515Z,99809.38
2019-01-29T22:35:30.095Z,99804.21
2019-01-29T22:37:56.811Z,99813.77
2019-01-29T22:40:27.124Z,99812.39
2019-01-29T22:42:54.462Z,99809.03
2019-01-29T22:45:21.185Z,99815.18
2019-01-29T22:47:47.806Z,99803.52
2019-01-29T22:50:22.802Z,99805.15
2019-01-29T22:52:49.472Z,99811.69
2019-01-29T22:55:16.270Z,99811.22
2019-01-29T22:57:42.979Z,99810.87
2019-01-29T23:00:17.346Z,99813.50
2019-01-29T23:02:44.172Z,99814.38
2019-01-29T23:05:10.836Z,99815.16
2019-01-29T23:07:37.842Z,99815.75
2019-01-29T23:10:10.200Z,99814.95
2019-01-29T23:12:36.822Z,99814.09
2019-01-29T23:15:08.923Z,99813.65
2019-01-29T23:17:35.811Z,99808.00
2019-01-29T23:20:07.098Z,99806.85
2019-01-29T23:22:33.670Z,99807.74
2019-01-29T23:25:00.314Z,99809.91
2019-01-29T23:27:26.883Z,99807.31
2019-01-29T23:29:53.479Z,99810.72
2019-01-29T23:32:20.249Z,99809.74
2019-01-29T23:34:46.968Z,99814.51
2019-01-29T23:37:13.721Z,99814.92
2019-01-29T23:39:40.382Z,99818.10
2019-01-29T23:42:07.006Z,99817.63
2019-01-29T23:44:33.686Z,99809.40
2019-01-29T23:47:00.717Z,99812.03
2019-01-29T23:49:27.405Z,99804.28
2019-01-29T23:51:54.261Z,99804.22
2019-01-29T23:54:21.269Z,99800.36
2019-01-29T23:56:48.199Z,99795.27
2019-01-29T23:59:15.420Z,99790.86
